Time;durP1;ratioP1;P1;durP2;ratioP2;P2;SDS_P1;SDS_P2;PMS_P1;PMS_P2;Temp;Humidity;BMP_temperature;BMP_pressure;BME280_temperature;BME280_humidity;BME280_pressure;Samples;Min_cycle;Max_cycle;Signal;HPM_P1;HPM_P2
2021/12/04 00:00:48;;;;;;;83.30;42.10;;;7.60;99.90;;;;;;5072967;28;20449;-72
2021/12/04 00:03:15;;;;;;;85.18;42.35;;;7.60;99.90;;;;;;5068695;28;20426;-73
2021/12/04 00:05:48;;;;;;;82.95;41.42;;;7.60;99.90;;;;;;5079090;28;20402;-71
2021/12/04 00:08:14;;;;;;;82.90;42.80;;;7.70;99.90;;;;;;5074408;28;20410;-71
2021/12/04 00:10:39;;;;;;;86.85;42.40;;;7.70;99.90;;;;;;5073833;28;20403;-72
2021/12/04 00:13:05;;;;;;;88.43;41.00;;;7.70;99.90;;;;;;5067192;28;20930;-73
2021/12/04 00:15:31;;;;;;;85.40;41.58;;;7.70;99.90;;;;;;5073635;28;20863;-73
2021/12/04 00:17:58;;;;;;;85.57;42.03;;;7.70;99.90;;;;;;5070462;28;20416;-72
2021/12/04 00:20:24;;;;;;;82.90;41.20;;;7.60;99.90;;;;;;5071118;28;20869;-73
2021/12/04 00:22:50;;;;;;;93.38;42.90;;;7.60;99.90;;;;;;5062521;28;20527;-72
2021/12/04 00:25:16;;;;;;;91.28;42.83;;;7.70;99.90;;;;;;5072330;28;20407;-72
2021/12/04 00:27:42;;;;;;;91.90;43.35;;;7.70;99.90;;;;;;5066761;28;20731;-72
2021/12/04 00:30:09;;;;;;;96.80;44.50;;;7.70;99.90;;;;;;5067957;28;20400;-73
2021/12/04 00:32:36;;;;;;;96.30;43.45;;;7.70;99.90;;;;;;5072740;28;20414;-72
2021/12/04 00:35:09;;;;;;;100.55;44.65;;;7.70;99.90;;;;;;5071752;28;20387;-72
2021/12/04 00:37:56;;;;;;;96.50;44.60;;;7.60;99.90;;;;;;5070031;28;20418;-71
2021/12/04 00:51:28;;;;;;;102.75;45.80;;;7.70;99.90;;;;;;5071956;28;20406;-72
2021/12/04 00:53:54;;;;;;;103.15;46.92;;;7.70;99.90;;;;;;5076914;28;20413;-73
2021/12/04 00:56:21;;;;;;;108.07;47.30;;;7.70;99.90;;;;;;5072890;28;20411;-72
2021/12/04 00:58:47;;;;;;;116.20;48.03;;;7.70;99.90;;;;;;5079051;28;20830;-71
2021/12/04 01:01:16;;;;;;;107.25;47.45;;;7.70;99.90;;;;;;5073366;28;20517;-72
2021/12/04 01:03:41;;;;;;;113.87;48.87;;;7.70;99.90;;;;;;5065983;28;20448;-72
2021/12/04 01:06:07;;;;;;;126.72;49.75;;;7.70;99.90;;;;;;5074273;28;20818;-73
2021/12/04 01:08:33;;;;;;;118.97;49.15;;;7.70;99.90;;;;;;5065516;28;20973;-72
2021/12/04 01:11:01;;;;;;;119.45;49.33;;;7.80;99.90;;;;;;5065025;28;20458;-72
2021/12/04 01:13:28;;;;;;;120.75;50.58;;;7.80;99.90;;;;;;5067891;28;20516;-72
2021/12/04 01:15:53;;;;;;;124.30;50.40;;;7.70;99.90;;;;;;5070343;28;20415;-71
2021/12/04 01:18:19;;;;;;;125.80;50.67;;;7.80;99.90;;;;;;5063886;28;20429;-72
2021/12/04 01:20:48;;;;;;;128.38;51.88;;;7.80;99.90;;;;;;5064927;28;20451;-72
2021/12/04 01:23:16;;;;;;;124.85;51.45;;;7.80;99.90;;;;;;5063788;28;20810;-71
2021/12/04 01:25:43;;;;;;;125.10;51.85;;;7.80;99.90;;;;;;5065317;28;20431;-72
2021/12/04 01:28:08;;;;;;;129.70;51.53;;;7.80;99.90;;;;;;5066340;28;20518;-71
2021/12/04 01:30:34;;;;;;;141.13;53.30;;;7.80;99.90;;;;;;5066385;28;20491;-72
2021/12/04 01:33:00;;;;;;;135.98;51.40;;;7.80;99.90;;;;;;5072549;28;20430;-71
2021/12/04 01:35:26;;;;;;;137.98;54.10;;;7.80;99.90;;;;;;5066724;28;20407;-71
2021/12/04 01:37:52;;;;;;;147.33;53.40;;;7.80;99.90;;;;;;5065064;28;20502;-72
2021/12/04 01:40:19;;;;;;;139.00;54.67;;;7.80;99.90;;;;;;5065488;28;20427;-72
2021/12/04 01:42:47;;;;;;;150.15;55.50;;;7.80;99.90;;;;;;5066081;28;21267;-73
2021/12/04 01:45:13;;;;;;;143.77;54.78;;;7.80;99.90;;;;;;5065630;28;20422;-71
2021/12/04 01:47:39;;;;;;;154.77;55.40;;;7.80;99.90;;;;;;5066526;28;20415;-72
2021/12/04 01:50:07;;;;;;;149.80;54.63;;;7.80;99.90;;;;;;5067893;28;20510;-72
2021/12/04 01:52:33;;;;;;;152.05;56.50;;;7.80;99.90;;;;;;5065140;28;20411;-73
2021/12/04 01:54:59;;;;;;;154.68;55.28;;;7.80;99.90;;;;;;5067506;28;20469;-71
2021/12/04 01:57:25;;;;;;;155.20;56.47;;;7.80;99.90;;;;;;5064756;28;20455;-73
2021/12/04 01:59:51;;;;;;;141.18;55.05;;;7.80;99.90;;;;;;5076726;28;20813;-71
2021/12/04 02:02:17;;;;;;;169.37;57.37;;;7.70;99.90;;;;;;5067176;28;20422;-71
2021/12/04 02:04:43;;;;;;;175.40;57.50;;;7.80;99.90;;;;;;5072708;28;20418;-71
2021/12/04 02:07:10;;;;;;;159.35;56.97;;;7.80;99.90;;;;;;5064514;28;20416;-72
2021/12/04 02:09:37;;;;;;;178.73;58.22;;;7.80;99.90;;;;;;5076398;28;20416;-72
2021/12/04 02:12:05;;;;;;;167.30;56.90;;;7.80;99.90;;;;;;5065455;28;20419;-72
2021/12/04 02:14:35;;;;;;;167.88;56.88;;;7.80;99.90;;;;;;5064861;28;20494;-74
2021/12/04 02:17:01;;;;;;;166.40;57.65;;;7.80;99.90;;;;;;5065189;28;20756;-73
2021/12/04 02:19:28;;;;;;;163.18;56.50;;;7.80;99.90;;;;;;5070856;28;20408;-71
2021/12/04 02:21:54;;;;;;;176.15;58.33;;;7.80;99.90;;;;;;5062907;28;20499;-74
2021/12/04 02:24:19;;;;;;;176.20;56.40;;;7.80;99.90;;;;;;5065858;28;20572;-73
2021/12/04 02:26:49;;;;;;;171.80;57.50;;;7.80;99.90;;;;;;5062859;28;20400;-72
2021/12/04 02:29:15;;;;;;;167.23;56.40;;;7.80;99.90;;;;;;5065980;28;20403;-73
2021/12/04 02:31:50;;;;;;;172.77;56.13;;;7.90;99.90;;;;;;5064402;28;20419;-72
2021/12/04 02:34:34;;;;;;;176.32;57.13;;;7.90;99.90;;;;;;5067736;28;20407;-74
2021/12/04 02:37:00;;;;;;;195.05;58.88;;;7.80;99.90;;;;;;5066226;28;20953;-71
2021/12/04 02:39:28;;;;;;;187.77;56.85;;;7.90;99.90;;;;;;5068185;28;20944;-72
2021/12/04 02:41:54;;;;;;;169.27;56.50;;;7.90;99.90;;;;;;5063109;28;20427;-72
2021/12/04 02:44:21;;;;;;;184.30;57.80;;;7.90;99.90;;;;;;5066026;28;20539;-71
2021/12/04 02:46:47;;;;;;;194.98;59.70;;;7.90;99.90;;;;;;5044782;28;20420;-73
2021/12/04 02:49:15;;;;;;;175.48;58.13;;;7.90;99.90;;;;;;5067449;28;20415;-71
2021/12/04 02:51:41;;;;;;;177.02;58.35;;;7.90;99.90;;;;;;5065716;28;20766;-72
2021/12/04 02:54:07;;;;;;;171.48;56.90;;;7.90;99.90;;;;;;5066231;28;20411;-71
2021/12/04 02:56:32;;;;;;;188.05;58.75;;;7.90;99.90;;;;;;5047751;28;20413;-72
2021/12/04 02:59:02;;;;;;;194.60;58.90;;;7.90;99.90;;;;;;5064970;28;20411;-72
2021/12/04 03:01:28;;;;;;;206.47;60.00;;;7.90;99.90;;;;;;5060105;28;20419;-72
2021/12/04 03:04:08;;;;;;;201.90;59.05;;;7.90;99.90;;;;;;5062067;28;20456;-73
2021/12/04 03:06:42;;;;;;;188.52;58.30;;;7.90;99.90;;;;;;5061770;28;20446;-71
2021/12/04 03:09:08;;;;;;;191.80;58.60;;;7.90;99.90;;;;;;5048870;28;20415;-71
2021/12/04 03:11:34;;;;;;;194.27;59.92;;;7.90;99.90;;;;;;5029198;28;20934;-72
2021/12/04 03:14:00;;;;;;;196.15;60.08;;;8.00;99.90;;;;;;5068529;28;20407;-71
2021/12/04 03:16:26;;;;;;;187.00;57.97;;;8.00;99.90;;;;;;5046462;28;20395;-72
2021/12/04 03:18:52;;;;;;;205.43;58.70;;;8.00;99.90;;;;;;5045045;28;20777;-72
2021/12/04 03:21:18;;;;;;;205.10;60.55;;;8.00;99.90;;;;;;5062692;28;20419;-71
2021/12/04 03:26:27;;;;;;;203.60;59.63;;;8.00;99.90;;;;;;5062276;28;20403;-72
2021/12/04 03:28:55;;;;;;;223.77;59.83;;;8.00;99.90;;;;;;5065764;28;20461;-74
2021/12/04 03:42:01;;;;;;;237.40;60.55;;;8.00;99.90;;;;;;5062575;28;20483;-72
2021/12/04 03:44:26;;;;;;;259.17;61.30;;;8.00;99.90;;;;;;5067805;28;20411;-72
2021/12/04 03:46:52;;;;;;;253.87;59.93;;;8.00;99.90;;;;;;5064720;28;20408;-71
2021/12/04 03:49:18;;;;;;;252.10;60.28;;;8.00;99.90;;;;;;5065644;28;20435;-71
2021/12/04 03:51:43;;;;;;;232.20;60.57;;;8.00;99.90;;;;;;5046469;28;20825;-74
2021/12/04 03:54:09;;;;;;;318.45;61.92;;;8.00;99.90;;;;;;5058035;28;20422;-72
2021/12/04 03:56:36;;;;;;;260.97;62.60;;;8.10;99.90;;;;;;5045831;28;20425;-72
2021/12/04 03:59:03;;;;;;;232.68;60.30;;;8.10;99.90;;;;;;5061298;28;20500;-73
2021/12/04 04:01:29;;;;;;;281.00;61.72;;;8.10;99.90;;;;;;5060874;28;20523;-73
2021/12/04 04:03:54;;;;;;;250.50;59.88;;;8.10;99.90;;;;;;5065645;28;20407;-70
2021/12/04 04:06:20;;;;;;;272.40;61.50;;;8.10;99.90;;;;;;5029440;28;20425;-71
2021/12/04 04:08:45;;;;;;;306.58;61.65;;;8.10;99.90;;;;;;5062167;28;20440;-72
2021/12/04 04:11:12;;;;;;;289.23;61.87;;;8.10;99.90;;;;;;5066299;28;20418;-72
2021/12/04 04:13:41;;;;;;;308.10;62.50;;;8.10;99.90;;;;;;5061732;28;20422;-71
2021/12/04 04:16:07;;;;;;;308.30;63.70;;;8.10;99.90;;;;;;5067591;28;20920;-71
2021/12/04 04:18:33;;;;;;;273.73;60.23;;;8.10;99.90;;;;;;5057455;28;20523;-71
2021/12/04 04:20:59;;;;;;;309.20;62.03;;;8.10;99.90;;;;;;5043527;28;20976;-71
2021/12/04 04:23:25;;;;;;;282.98;62.75;;;8.10;99.90;;;;;;5059954;28;20480;-72
2021/12/04 04:25:51;;;;;;;327.63;61.45;;;8.10;99.90;;;;;;5066002;28;20418;-71
2021/12/04 04:28:16;;;;;;;310.07;62.00;;;8.10;99.90;;;;;;5061030;28;20498;-73
2021/12/04 04:30:42;;;;;;;255.77;58.75;;;8.00;99.90;;;;;;5049063;28;20414;-72
2021/12/04 04:33:11;;;;;;;255.03;57.53;;;8.10;99.90;;;;;;5044325;28;20908;-72
2021/12/04 04:35:36;;;;;;;276.67;57.13;;;8.10;99.90;;;;;;5066782;28;20407;-72
2021/12/04 04:59:57;;;;;;;260.10;46.95;;;8.10;99.90;;;;;;5060735;28;20504;-72
2021/12/04 05:11:06;;;;;;;186.98;44.22;;;8.10;99.90;;;;;;5055520;28;20498;-72
2021/12/04 05:13:32;;;;;;;188.07;44.22;;;8.10;99.90;;;;;;5039987;28;20903;-75
2021/12/04 05:15:59;;;;;;;158.80;44.25;;;8.10;99.90;;;;;;5061875;28;20420;-72
2021/12/04 05:21:03;;;;;;;173.27;44.42;;;8.10;99.90;;;;;;5056474;28;20425;-71
2021/12/04 05:23:30;;;;;;;187.90;44.28;;;8.10;99.90;;;;;;5054369;28;20765;-71
2021/12/04 05:25:56;;;;;;;198.25;43.08;;;8.10;99.90;;;;;;5061671;28;20412;-71
2021/12/04 05:28:22;;;;;;;199.52;44.13;;;8.10;99.90;;;;;;5061630;28;20419;-71
2021/12/04 05:30:49;;;;;;;190.83;45.30;;;8.10;99.90;;;;;;5065097;28;20405;-70
2021/12/04 05:33:15;;;;;;;172.73;42.85;;;8.10;99.90;;;;;;5061638;28;20456;-72
2021/12/04 05:35:41;;;;;;;206.90;44.05;;;8.10;99.90;;;;;;5057694;28;20413;-71
2021/12/04 05:38:06;;;;;;;190.63;44.17;;;8.10;99.90;;;;;;5061451;28;20506;-70
2021/12/04 05:40:32;;;;;;;170.95;42.03;;;8.10;99.90;;;;;;5067833;28;20537;-70
2021/12/04 05:43:02;;;;;;;184.05;41.53;;;8.10;99.90;;;;;;5064745;28;20419;-71
2021/12/04 05:45:32;;;;;;;204.73;42.50;;;8.10;99.90;;;;;;5066408;28;20403;-70
2021/12/04 05:49:01;;;;;;;173.60;42.63;;;8.10;99.90;;;;;;5064290;28;21130;-71
2021/12/04 05:51:13;;;;;;;153.73;42.05;;;8.10;99.90;;;;;;5060837;28;20476;-70
2021/12/04 05:53:54;;;;;;;175.82;41.53;;;8.10;99.90;;;;;;5064102;28;20457;-69
2021/12/04 05:56:20;;;;;;;143.30;40.05;;;8.10;99.90;;;;;;5064034;28;20858;-71
2021/12/04 05:58:47;;;;;;;158.77;42.08;;;8.10;99.90;;;;;;5066094;28;20446;-71
2021/12/04 06:01:15;;;;;;;186.52;42.80;;;8.20;99.90;;;;;;5076155;28;20426;-72
2021/12/04 06:03:41;;;;;;;173.32;40.85;;;8.10;99.90;;;;;;5064083;28;20925;-70
2021/12/04 06:06:07;;;;;;;167.73;40.05;;;8.20;99.90;;;;;;5063386;28;20424;-72
2021/12/04 06:08:32;;;;;;;228.00;40.73;;;8.20;99.90;;;;;;5062069;28;20430;-71
2021/12/04 06:10:58;;;;;;;209.63;40.63;;;8.20;99.90;;;;;;5070647;28;20414;-71
2021/12/04 06:13:25;;;;;;;178.13;40.57;;;8.20;99.90;;;;;;5073658;28;20991;-71
2021/12/04 06:15:51;;;;;;;207.82;41.00;;;8.10;99.90;;;;;;5068237;28;20409;-72
2021/12/04 06:18:17;;;;;;;170.93;39.30;;;8.20;99.90;;;;;;5066409;28;20975;-71
2021/12/04 06:23:29;;;;;;;162.73;40.00;;;8.10;99.90;;;;;;5070560;28;20407;-72
2021/12/04 06:25:55;;;;;;;151.02;38.75;;;8.10;99.90;;;;;;5068011;28;20420;-70
2021/12/04 06:28:21;;;;;;;190.98;40.58;;;8.10;99.90;;;;;;5067545;28;20414;-71
2021/12/04 06:30:47;;;;;;;168.30;39.95;;;8.10;99.90;;;;;;5072097;28;20413;-71
2021/12/04 06:33:16;;;;;;;157.67;41.13;;;8.10;99.90;;;;;;5064998;28;20503;-71
2021/12/04 06:35:41;;;;;;;199.73;41.58;;;8.10;99.90;;;;;;5069279;28;20419;-72
2021/12/04 06:38:09;;;;;;;213.93;41.72;;;8.10;99.90;;;;;;5066824;28;20407;-71
2021/12/04 06:40:36;;;;;;;237.02;41.00;;;8.10;99.90;;;;;;5061590;28;20432;-72
2021/12/04 06:43:02;;;;;;;228.02;41.13;;;8.10;99.90;;;;;;5060718;28;20749;-72
2021/12/04 06:45:31;;;;;;;265.63;40.92;;;8.10;99.90;;;;;;5056321;28;20419;-73
2021/12/04 06:48:21;;;;;;;284.23;42.53;;;8.10;99.90;;;;;;5058418;28;20486;-70
2021/12/04 06:50:47;;;;;;;200.30;39.83;;;8.10;99.90;;;;;;5043479;28;20421;-69
2021/12/04 06:53:58;;;;;;;191.02;40.33;;;8.10;99.90;;;;;;5060779;28;20767;-69
2021/12/04 06:56:05;;;;;;;213.05;41.20;;;8.10;99.90;;;;;;5051946;28;20791;-70
2021/12/04 06:58:31;;;;;;;193.18;40.83;;;8.10;99.90;;;;;;5061580;28;20426;-71
2021/12/04 07:00:57;;;;;;;186.40;39.33;;;8.10;99.90;;;;;;5063373;28;20429;-71
2021/12/04 07:03:22;;;;;;;232.98;41.15;;;8.10;99.90;;;;;;5060681;28;20436;-71
2021/12/04 07:05:48;;;;;;;179.43;40.95;;;8.10;99.90;;;;;;5038580;28;20404;-70
2021/12/04 07:08:16;;;;;;;184.73;42.25;;;8.10;99.90;;;;;;5058863;28;20913;-71
2021/12/04 07:10:42;;;;;;;197.40;41.53;;;8.10;99.90;;;;;;5063235;28;20959;-71
2021/12/04 07:13:08;;;;;;;199.48;42.10;;;8.10;99.90;;;;;;5053016;28;20503;-74
2021/12/04 07:15:34;;;;;;;175.57;42.33;;;8.10;99.90;;;;;;5058991;28;21008;-71
2021/12/04 07:18:01;;;;;;;180.73;42.15;;;8.10;99.90;;;;;;5058062;28;20415;-72
2021/12/04 07:20:28;;;;;;;181.80;43.40;;;8.20;99.90;;;;;;5057775;28;20512;-72
2021/12/04 07:22:53;;;;;;;225.43;43.05;;;8.20;99.90;;;;;;5073993;28;20455;-71
2021/12/04 07:25:19;;;;;;;212.98;42.63;;;8.20;99.90;;;;;;5062604;28;20971;-71
2021/12/04 07:27:46;;;;;;;212.93;43.37;;;8.20;99.90;;;;;;5061418;28;20510;-72
2021/12/04 07:30:12;;;;;;;215.82;43.25;;;8.20;99.90;;;;;;5060551;28;20417;-71
2021/12/04 07:32:38;;;;;;;191.55;42.38;;;8.20;99.90;;;;;;5061587;28;20426;-71
2021/12/04 07:35:05;;;;;;;180.35;42.72;;;8.20;99.90;;;;;;5060064;28;20420;-69
2021/12/04 07:37:31;;;;;;;170.63;41.95;;;8.20;99.90;;;;;;5019078;28;21179;-71
2021/12/04 07:39:57;;;;;;;171.67;41.70;;;8.10;99.90;;;;;;5055716;28;20510;-72
2021/12/04 07:42:23;;;;;;;157.30;39.75;;;8.10;99.90;;;;;;5065711;28;20418;-71
2021/12/04 07:44:48;;;;;;;150.93;40.13;;;8.10;99.90;;;;;;5067499;28;20469;-71
2021/12/04 07:47:14;;;;;;;152.77;39.78;;;8.10;99.90;;;;;;5066649;28;20418;-71
2021/12/04 07:49:40;;;;;;;147.55;39.83;;;8.10;99.90;;;;;;5065081;28;20439;-72
2021/12/04 07:52:07;;;;;;;152.43;40.50;;;8.20;99.90;;;;;;5065551;28;20446;-72
2021/12/04 07:54:34;;;;;;;134.93;39.80;;;8.20;99.90;;;;;;5066969;28;20403;-72
2021/12/04 07:57:00;;;;;;;126.30;39.95;;;8.10;99.90;;;;;;5065716;28;20443;-71
2021/12/04 07:59:26;;;;;;;130.32;40.03;;;8.10;99.90;;;;;;5067659;28;20411;-70
2021/12/04 08:01:52;;;;;;;138.40;41.33;;;8.10;99.90;;;;;;5065417;28;20762;-70
2021/12/04 08:04:19;;;;;;;143.27;43.17;;;8.00;99.90;;;;;;5067452;28;20854;-71
2021/12/04 08:06:44;;;;;;;156.13;46.80;;;8.00;99.90;;;;;;5065327;28;20411;-75
2021/12/04 08:09:10;;;;;;;173.95;44.88;;;8.10;99.90;;;;;;5065652;28;20461;-72
2021/12/04 08:11:37;;;;;;;165.33;45.10;;;8.00;99.90;;;;;;5065918;28;20910;-70
2021/12/04 08:14:03;;;;;;;156.98;44.10;;;8.10;99.90;;;;;;5070666;28;20427;-70
2021/12/04 08:16:32;;;;;;;142.63;41.07;;;8.10;99.90;;;;;;5065888;28;20465;-72
2021/12/04 08:18:58;;;;;;;136.00;41.10;;;8.10;99.90;;;;;;5066767;28;20414;-71
2021/12/04 08:21:24;;;;;;;142.18;41.38;;;8.10;99.90;;;;;;5062954;28;20423;-71
2021/12/04 08:23:50;;;;;;;150.47;43.20;;;8.10;99.90;;;;;;5068065;28;20414;-71
2021/12/04 08:26:16;;;;;;;152.40;42.78;;;8.10;99.90;;;;;;5063223;28;20411;-73
2021/12/04 08:28:41;;;;;;;148.30;42.28;;;8.20;99.90;;;;;;5066801;28;20530;-72
2021/12/04 08:31:07;;;;;;;223.83;43.33;;;8.20;99.90;;;;;;5066911;28;20579;-70
2021/12/04 08:33:33;;;;;;;212.05;43.63;;;8.20;99.90;;;;;;5064760;28;20521;-73
2021/12/04 08:36:01;;;;;;;216.68;42.78;;;8.20;99.90;;;;;;5066739;28;20410;-71
2021/12/04 08:38:27;;;;;;;190.13;42.67;;;8.20;99.90;;;;;;5064226;28;20427;-69
2021/12/04 08:40:53;;;;;;;199.50;44.03;;;8.10;99.90;;;;;;5065605;28;20446;-72
2021/12/04 08:43:19;;;;;;;176.50;43.07;;;8.10;99.90;;;;;;5063925;28;20407;-70
2021/12/04 08:45:45;;;;;;;182.30;41.80;;;8.20;99.90;;;;;;5065044;28;20419;-74
2021/12/04 08:48:12;;;;;;;167.80;41.33;;;8.10;99.90;;;;;;5074094;28;20512;-72
2021/12/04 08:50:38;;;;;;;158.00;40.33;;;8.20;99.90;;;;;;5068017;28;20756;-71
2021/12/04 08:53:05;;;;;;;128.97;38.43;;;8.20;99.90;;;;;;5067605;28;20408;-71
2021/12/04 08:55:35;;;;;;;124.10;37.28;;;8.20;99.90;;;;;;5064215;28;20414;-72
2021/12/04 08:58:01;;;;;;;123.53;38.15;;;8.20;99.90;;;;;;5064128;28;20490;-72
2021/12/04 09:00:58;;;;;;;135.68;38.83;;;8.20;99.90;;;;;;5063860;28;20423;-73
2021/12/04 09:03:33;;;;;;;127.80;38.40;;;8.20;99.90;;;;;;5061817;28;20840;-70
2021/12/04 09:06:01;;;;;;;124.80;37.15;;;8.20;99.90;;;;;;5065829;28;20458;-70
2021/12/04 09:08:28;;;;;;;115.00;34.72;;;8.20;99.90;;;;;;5063847;28;21211;-74
2021/12/04 09:10:57;;;;;;;138.10;35.58;;;8.20;99.90;;;;;;5075986;28;20404;-72
2021/12/04 09:13:24;;;;;;;116.75;31.38;;;8.20;99.90;;;;;;5063375;28;20895;-72
2021/12/04 09:15:51;;;;;;;95.47;30.25;;;8.20;99.90;;;;;;5064200;28;20427;-72
2021/12/04 09:18:17;;;;;;;86.30;27.13;;;8.20;99.90;;;;;;5072116;28;20762;-71
2021/12/04 09:20:43;;;;;;;83.13;26.23;;;8.10;99.90;;;;;;5069823;28;20452;-73
2021/12/04 09:23:14;;;;;;;80.10;25.98;;;8.10;99.90;;;;;;5063555;28;20411;-71
2021/12/04 09:25:43;;;;;;;87.90;24.67;;;8.00;99.90;;;;;;5065614;28;20422;-73
2021/12/04 10:01:00;;;;;;;69.78;24.23;;;7.90;99.90;;;;;;5072406;28;20839;-72
2021/12/04 10:03:44;;;;;;;73.38;24.67;;;7.90;99.90;;;;;;5064231;28;20731;-73
2021/12/04 10:19:42;;;;;;;67.80;26.15;;;7.90;99.90;;;;;;5065988;28;20997;-74
2021/12/04 10:22:36;;;;;;;71.87;27.33;;;7.90;99.90;;;;;;5064529;28;20819;-72
2021/12/04 10:33:42;;;;;;;74.63;27.88;;;7.80;99.90;;;;;;5062788;28;20419;-72
2021/12/04 10:36:09;;;;;;;69.85;28.05;;;7.80;99.90;;;;;;5064316;28;20411;-72
2021/12/04 10:38:45;;;;;;;75.40;28.60;;;7.80;99.90;;;;;;5061843;28;20426;-72
2021/12/04 10:41:12;;;;;;;76.60;28.05;;;7.90;99.90;;;;;;5062030;28;20538;-72
2021/12/04 10:43:38;;;;;;;75.90;28.67;;;7.90;99.90;;;;;;5041903;28;20407;-75
2021/12/04 10:46:15;;;;;;;76.65;29.15;;;7.90;99.90;;;;;;5041865;28;20891;-73
2021/12/04 10:48:49;;;;;;;79.85;29.27;;;7.80;99.90;;;;;;5058950;28;20436;-74
2021/12/04 10:51:33;;;;;;;84.55;30.52;;;7.80;99.90;;;;;;5060923;28;20416;-73
2021/12/04 10:54:17;;;;;;;91.18;31.13;;;7.80;99.90;;;;;;5060207;28;21231;-74
2021/12/04 10:59:32;;;;;;;84.95;31.10;;;7.90;99.90;;;;;;5062883;28;20415;-74
2021/12/04 11:02:07;;;;;;;91.10;32.60;;;7.90;99.90;;;;;;5060252;28;20900;-73
2021/12/04 11:18:36;;;;;;;91.78;32.47;;;7.90;99.90;;;;;;5053060;28;20896;-76
2021/12/04 11:19:07;;;;;;;102.87;34.60;;;8.00;99.90;;;;;;5066488;28;20903;-72
2021/12/04 11:24:35;;;;;;;108.35;37.10;;;8.10;99.90;;;;;;5066951;28;20907;-71
2021/12/04 11:36:15;;;;;;;125.80;40.00;;;8.10;99.90;;;;;;5063098;28;20541;-72
2021/12/04 11:38:44;;;;;;;129.93;42.65;;;8.20;99.90;;;;;;5058722;28;20916;-71
2021/12/04 11:41:23;;;;;;;119.95;41.25;;;8.20;99.90;;;;;;5045476;28;20452;-72
2021/12/04 11:46:27;;;;;;;116.57;41.67;;;8.30;99.90;;;;;;5033772;28;20415;-73
2021/12/04 11:48:53;;;;;;;110.13;40.75;;;8.30;99.90;;;;;;5012903;28;20421;-73
2021/12/04 11:51:22;;;;;;;97.25;37.75;;;8.20;99.90;;;;;;5047506;28;20417;-74
2021/12/04 11:53:49;;;;;;;96.60;37.03;;;8.30;99.90;;;;;;5045932;28;20423;-72
2021/12/04 11:56:28;;;;;;;103.90;40.60;;;8.30;99.90;;;;;;5045945;28;20825;-72
2021/12/04 11:58:54;;;;;;;93.85;36.65;;;8.30;99.90;;;;;;5051477;28;20762;-72
2021/12/04 12:01:22;;;;;;;84.53;34.53;;;8.30;99.90;;;;;;5031684;28;20479;-74
2021/12/04 12:03:53;;;;;;;89.10;36.13;;;8.20;99.90;;;;;;5049826;28;20478;-75
2021/12/04 12:06:39;;;;;;;90.07;34.97;;;8.20;99.90;;;;;;5047051;28;20417;-74
2021/12/04 12:09:07;;;;;;;86.57;35.50;;;8.20;99.90;;;;;;5055716;28;20406;-75
2021/12/04 12:11:33;;;;;;;86.77;35.10;;;8.20;99.90;;;;;;5049881;28;20417;-70
2021/12/04 12:14:05;;;;;;;89.10;35.38;;;8.20;99.90;;;;;;5050370;28;20413;-71
2021/12/04 12:16:38;;;;;;;92.90;35.42;;;8.20;99.90;;;;;;5026842;28;20421;-72
2021/12/04 12:19:13;;;;;;;100.05;36.67;;;8.30;99.90;;;;;;5029660;28;20440;-73
2021/12/04 12:33:08;;;;;;;110.95;37.20;;;8.30;99.90;;;;;;5057317;28;21129;-74
2021/12/04 12:38:39;;;;;;;121.05;39.40;;;8.20;99.90;;;;;;5052930;28;20499;-73
2021/12/04 12:41:23;;;;;;;144.13;55.83;;;8.20;99.90;;;;;;5067271;28;20419;-72
2021/12/04 12:44:04;;;;;;;119.57;38.72;;;8.20;99.90;;;;;;5065905;28;20429;-72
2021/12/04 12:46:36;;;;;;;125.38;38.55;;;8.20;99.90;;;;;;5062458;28;20415;-71
2021/12/04 12:49:03;;;;;;;124.70;38.78;;;8.10;99.90;;;;;;5064642;28;20486;-72
2021/12/04 12:51:34;;;;;;;134.90;39.70;;;8.20;99.90;;;;;;5073713;28;20414;-74
2021/12/04 12:54:03;;;;;;;125.78;38.53;;;8.10;99.90;;;;;;5065460;28;20427;-71
2021/12/04 12:56:32;;;;;;;128.30;39.63;;;8.10;99.90;;;;;;5067813;28;20420;-73
2021/12/04 12:59:05;;;;;;;125.40;39.50;;;8.10;99.90;;;;;;5066984;28;20494;-73
2021/12/04 13:12:49;;;;;;;127.95;38.00;;;8.10;99.90;;;;;;5063999;28;20411;-72
2021/12/04 13:15:35;;;;;;;123.68;38.53;;;8.20;99.90;;;;;;5065192;28;20425;-73
2021/12/04 13:18:20;;;;;;;104.90;35.63;;;8.20;99.90;;;;;;5067077;28;20415;-69
2021/12/04 13:20:47;;;;;;;110.03;35.75;;;8.20;99.90;;;;;;5062012;28;20415;-73
2021/12/04 13:23:15;;;;;;;113.65;36.53;;;8.20;99.90;;;;;;5069108;28;20402;-72
2021/12/04 13:25:51;;;;;;;102.47;35.75;;;8.20;99.90;;;;;;5071757;28;20399;-72
2021/12/04 13:28:21;;;;;;;109.50;34.83;;;8.20;99.90;;;;;;5064278;28;20447;-71
2021/12/04 13:30:47;;;;;;;114.32;36.78;;;8.20;99.90;;;;;;5066110;28;20420;-70
2021/12/04 13:33:13;;;;;;;108.67;36.67;;;8.20;99.90;;;;;;5064638;28;20427;-72
2021/12/04 13:35:44;;;;;;;94.13;34.60;;;8.20;99.90;;;;;;5064880;28;20407;-71
2021/12/04 13:38:10;;;;;;;91.18;36.00;;;8.20;99.90;;;;;;5064428;28;20498;-71
2021/12/04 13:40:37;;;;;;;88.60;32.75;;;8.20;99.90;;;;;;5058262;28;20510;-72
2021/12/04 13:43:08;;;;;;;82.60;30.50;;;8.20;99.90;;;;;;5059269;28;20416;-71
2021/12/04 13:45:34;;;;;;;64.78;24.10;;;8.20;99.90;;;;;;5043082;28;20474;-69
2021/12/04 13:48:00;;;;;;;26.00;12.10;;;8.30;99.90;;;;;;5058162;28;20419;-73
2021/12/04 13:53:16;;;;;;;35.38;15.98;;;8.20;99.90;;;;;;5038849;28;20488;-73
2021/12/04 13:55:46;;;;;;;34.33;15.68;;;8.20;99.90;;;;;;5045618;28;20460;-73
2021/12/04 13:58:12;;;;;;;31.25;13.70;;;8.20;99.90;;;;;;5058687;28;20424;-71
2021/12/04 14:00:38;;;;;;;29.47;12.90;;;8.20;99.90;;;;;;5045680;28;20447;-71
2021/12/04 14:03:04;;;;;;;28.70;13.73;;;8.20;99.90;;;;;;5058271;28;20430;-71
2021/12/04 14:05:30;;;;;;;25.73;11.10;;;8.30;99.90;;;;;;5053847;28;20407;-70
2021/12/04 14:07:58;;;;;;;26.17;11.30;;;8.30;99.90;;;;;;5061070;28;21162;-72
2021/12/04 14:10:38;;;;;;;25.08;9.80;;;8.30;99.90;;;;;;5043472;28;20450;-71
2021/12/04 14:13:05;;;;;;;21.67;9.30;;;8.30;99.90;;;;;;5057482;28;20415;-69
2021/12/04 14:15:32;;;;;;;20.23;8.80;;;8.30;99.90;;;;;;5059782;28;20419;-70
2021/12/04 14:18:06;;;;;;;19.02;8.63;;;8.30;99.90;;;;;;5056812;28;20418;-71
2021/12/04 14:20:35;;;;;;;16.08;6.90;;;8.30;99.90;;;;;;5075541;28;20421;-69
2021/12/04 14:23:01;;;;;;;14.23;5.63;;;8.40;99.90;;;;;;5039862;28;20412;-71
2021/12/04 14:25:28;;;;;;;10.43;4.72;;;8.30;99.90;;;;;;5064920;28;20423;-70
2021/12/04 14:27:55;;;;;;;14.30;4.38;;;8.30;99.90;;;;;;5043146;28;20415;-72
2021/12/04 14:30:27;;;;;;;12.18;4.32;;;8.30;99.90;;;;;;5044824;28;20465;-72
2021/12/04 14:32:57;;;;;;;9.15;3.47;;;8.30;99.90;;;;;;5048402;28;20419;-72
2021/12/04 14:35:27;;;;;;;8.00;2.30;;;8.30;99.90;;;;;;5065217;28;20409;-71
2021/12/04 14:37:55;;;;;;;7.68;2.67;;;8.30;99.90;;;;;;5060396;28;20411;-71
2021/12/04 14:40:31;;;;;;;9.18;2.80;;;8.30;99.90;;;;;;5067719;28;20426;-71
2021/12/04 14:42:58;;;;;;;9.57;2.60;;;8.30;99.90;;;;;;5069798;28;20426;-70
2021/12/04 14:45:28;;;;;;;10.77;3.05;;;8.30;99.90;;;;;;5078164;28;20530;-72
2021/12/04 14:47:55;;;;;;;10.47;2.97;;;8.40;99.90;;;;;;5066418;28;20407;-69
2021/12/04 14:50:23;;;;;;;12.00;3.03;;;8.40;99.90;;;;;;5050530;28;20498;-71
2021/12/04 14:52:53;;;;;;;14.00;3.08;;;8.40;99.90;;;;;;5066285;28;20454;-71
2021/12/04 14:55:23;;;;;;;10.20;3.63;;;8.40;99.90;;;;;;5069225;28;20443;-70
2021/12/04 14:57:50;;;;;;;15.05;5.85;;;8.40;99.90;;;;;;5067456;28;20425;-71
2021/12/04 15:00:21;;;;;;;13.98;6.00;;;8.40;99.90;;;;;;5067848;28;20825;-70
2021/12/04 15:02:52;;;;;;;11.93;5.38;;;8.50;99.90;;;;;;5066090;28;20425;-72
2021/12/04 15:05:35;;;;;;;8.60;3.20;;;8.50;99.90;;;;;;5074651;28;20486;-69
2021/12/04 15:08:14;;;;;;;10.35;3.33;;;8.50;99.90;;;;;;5068009;28;20512;-71
2021/12/04 15:10:41;;;;;;;11.93;3.15;;;8.40;99.90;;;;;;5099114;28;20417;-69
2021/12/04 15:13:17;;;;;;;10.75;3.85;;;8.40;99.90;;;;;;5065339;28;20922;-70
2021/12/04 15:15:43;;;;;;;13.55;3.33;;;8.50;99.90;;;;;;5062713;28;20421;-72
2021/12/04 15:18:13;;;;;;;17.67;7.45;;;8.40;99.90;;;;;;5066958;28;20541;-70
2021/12/04 15:20:46;;;;;;;19.33;10.13;;;8.50;99.90;;;;;;5066729;28;20415;-71
2021/12/04 15:23:19;;;;;;;31.77;15.10;;;8.50;99.90;;;;;;5066595;28;20520;-70
2021/12/04 15:25:45;;;;;;;20.87;5.47;;;8.40;99.90;;;;;;5066522;28;20434;-70
2021/12/04 15:28:17;;;;;;;13.70;3.90;;;8.50;99.90;;;;;;5067283;28;20407;-71
2021/12/04 15:30:49;;;;;;;37.95;18.15;;;8.40;99.90;;;;;;5068253;28;20416;-72